Time;durP1;ratioP1;P1;durP2;ratioP2;P2;SDS_P1;SDS_P2;PMS_P1;PMS_P2;Temp;Humidity;BMP_temperature;BMP_pressure;BME280_temperature;BME280_humidity;BME280_pressure;Samples;Min_cycle;Max_cycle;Signal;HPM_P1;HPM_P2
2021/01/21 00:01:52;;;;;;;1999.90;999.90;;;9.60;99.90;;;;;;4929017;29;20048;-96
2021/01/21 00:04:19;;;;;;;1999.90;999.90;;;9.70;99.90;;;;;;4928130;29;20051;-96
2021/01/21 00:06:47;;;;;;;1999.90;999.90;;;9.70;99.90;;;;;;4928236;29;20052;-96
2021/01/21 00:09:16;;;;;;;1999.90;999.90;;;9.80;99.90;;;;;;4925769;29;20060;-96
2021/01/21 00:11:44;;;;;;;1999.90;999.90;;;9.80;99.90;;;;;;4926163;29;20495;-96
2021/01/21 00:14:11;;;;;;;1999.90;999.90;;;9.80;99.90;;;;;;4926835;29;20060;-96
2021/01/21 00:16:39;;;;;;;1999.90;999.90;;;9.80;99.90;;;;;;4928556;29;20116;-96
2021/01/21 00:19:12;;;;;;;1999.90;999.90;;;9.80;99.90;;;;;;4928230;29;20086;-96
2021/01/21 00:21:40;;;;;;;1999.90;999.90;;;9.80;99.90;;;;;;4927765;29;20186;-96
2021/01/21 01:00:45;;;;;;;1999.90;999.90;;;10.30;99.90;;;;;;4845255;29;20130;-96
2021/01/21 01:38:57;;;;;;;1999.90;999.90;;;9.90;99.90;;;;;;5109476;23;20123;-96
2021/01/21 02:05:34;;;;;;;1999.90;999.90;;;9.80;99.90;;;;;;4891815;29;20039;-96
2021/01/21 02:15:28;;;;;;;1999.90;999.90;;;9.70;99.90;;;;;;4945553;29;20067;-96
2021/01/21 02:22:26;;;;;;;;;;;9.70;99.90;;;;;;4871484;29;20063;-95
2021/01/21 02:25:20;;;;;;;1999.90;999.90;;;9.70;99.90;;;;;;4863957;29;19940;-94
2021/01/21 02:28:48;;;;;;;1999.90;999.90;;;9.70;99.90;;;;;;4865085;29;20140;-95
2021/01/21 02:31:59;;;;;;;1999.90;999.90;;;9.70;99.90;;;;;;4867934;29;20062;-94
2021/01/21 02:35:15;;;;;;;1999.90;999.90;;;9.80;99.90;;;;;;4837303;29;20113;-94
2021/01/21 02:38:37;;;;;;;1999.90;999.90;;;9.80;99.90;;;;;;4804419;30;20055;-94
2021/01/21 02:42:13;;;;;;;1999.90;999.90;;;9.90;99.90;;;;;;4791307;30;20063;-94
2021/01/21 02:56:27;;;;;;;1999.90;999.90;;;10.10;99.90;;;;;;4790451;30;20054;-93
2021/01/21 02:59:15;;;;;;;1999.90;999.90;;;10.20;99.90;;;;;;4837110;29;20062;-96
2021/01/21 03:02:14;;;;;;;1999.90;999.90;;;10.20;99.90;;;;;;4854262;29;20078;-95
2021/01/21 03:04:56;;;;;;;;;;;10.20;99.90;;;;;;4854318;29;20057;-95
2021/01/21 03:07:36;;;;;;;1999.90;999.90;;;10.20;99.90;;;;;;4853454;29;19954;-94
2021/01/21 03:10:27;;;;;;;1999.90;999.90;;;10.20;99.90;;;;;;4868348;29;20060;-94
2021/01/21 03:13:03;;;;;;;1999.90;999.90;;;10.20;99.90;;;;;;4914171;29;20103;-94
2021/01/21 03:15:44;;;;;;;1999.90;999.90;;;10.20;99.90;;;;;;4918276;29;20070;-95
2021/01/21 03:18:12;;;;;;;1999.90;999.90;;;10.20;99.90;;;;;;4921548;29;20056;-94
2021/01/21 03:20:59;;;;;;;1999.90;999.90;;;10.10;99.90;;;;;;4921287;29;20055;-95
2021/01/21 03:23:30;;;;;;;1999.90;999.90;;;10.00;99.90;;;;;;4919525;29;20052;-94
2021/01/21 03:25:58;;;;;;;1999.90;999.90;;;10.00;99.90;;;;;;4918626;29;20059;-93
2021/01/21 03:42:47;;;;;;;1999.90;999.90;;;9.80;99.90;;;;;;4849298;29;20572;-95
2021/01/21 03:45:20;;;;;;;1999.90;999.90;;;9.90;99.90;;;;;;4895822;29;20055;-95
2021/01/21 03:47:56;;;;;;;1999.90;999.90;;;9.90;99.90;;;;;;4921747;29;20056;-93
2021/01/21 03:50:26;;;;;;;1999.90;999.90;;;9.80;99.90;;;;;;4921491;29;20058;-95
2021/01/21 03:53:31;;;;;;;1999.90;999.90;;;9.50;99.90;;;;;;4921988;29;20111;-95
2021/01/21 03:56:15;;;;;;;1999.90;999.90;;;9.10;99.90;;;;;;4880707;29;20123;-94
2021/01/21 03:59:12;;;;;;;1999.90;999.90;;;8.70;99.90;;;;;;4930063;29;20059;-95
2021/01/21 04:01:51;;;;;;;1999.90;999.90;;;8.30;99.90;;;;;;4941456;29;20120;-93
2021/01/21 04:04:18;;;;;;;1999.90;999.90;;;8.20;99.90;;;;;;4940715;29;20457;-95
2021/01/21 04:10:57;;;;;;;1999.90;999.90;;;7.90;99.90;;;;;;4845272;29;20587;-95
2021/01/21 04:13:25;;;;;;;1999.90;999.90;;;7.80;99.90;;;;;;4845023;29;20066;-93
2021/01/21 04:15:57;;;;;;;1999.90;999.90;;;7.80;99.90;;;;;;4845599;29;20115;-94
2021/01/21 04:21:13;;;;;;;1999.90;999.90;;;7.70;99.90;;;;;;4840738;29;20061;-94
2021/01/21 04:23:59;;;;;;;1999.90;999.90;;;7.70;99.90;;;;;;4845090;29;20562;-95
2021/01/21 04:26:35;;;;;;;1999.90;999.90;;;7.60;99.90;;;;;;4845060;29;20474;-93
2021/01/21 04:29:04;;;;;;;1999.90;999.90;;;7.60;99.90;;;;;;4845085;29;20065;-93
2021/01/21 04:31:32;;;;;;;1999.90;999.90;;;7.50;99.90;;;;;;4845556;29;20474;-95
2021/01/21 04:34:09;;;;;;;1999.90;999.90;;;7.40;99.90;;;;;;4848029;29;20053;-95
2021/01/21 04:36:44;;;;;;;1999.90;999.90;;;7.40;99.90;;;;;;4847296;29;20126;-94
2021/01/21 04:39:17;;;;;;;1999.90;999.90;;;7.30;99.90;;;;;;4941806;29;20542;-94
2021/01/21 04:41:56;;;;;;;1999.90;999.90;;;7.30;99.90;;;;;;4941670;29;20408;-95
2021/01/21 04:44:40;;;;;;;1999.90;999.90;;;7.30;99.90;;;;;;4941692;29;20044;-96
2021/01/21 04:47:17;;;;;;;1999.90;999.90;;;7.30;99.90;;;;;;4942051;29;20052;-94
2021/01/21 04:50:16;;;;;;;1999.90;999.90;;;7.30;99.90;;;;;;4943349;29;20052;-94
2021/01/21 04:52:54;;;;;;;1999.90;999.90;;;7.30;99.90;;;;;;4941154;29;20065;-95
2021/01/21 04:55:30;;;;;;;1999.90;999.90;;;7.30;99.90;;;;;;4941374;29;20111;-93
2021/01/21 04:58:06;;;;;;;1999.90;999.90;;;7.30;99.90;;;;;;4940315;29;20059;-93
2021/01/21 05:00:43;;;;;;;1999.90;999.90;;;7.30;99.90;;;;;;4939180;29;20099;-94
2021/01/21 05:03:14;;;;;;;1999.90;999.90;;;7.30;99.90;;;;;;4939503;29;20052;-94
2021/01/21 05:05:49;;;;;;;1999.90;999.90;;;7.20;99.90;;;;;;4939136;29;20063;-95
2021/01/21 05:08:20;;;;;;;1999.90;999.90;;;7.20;99.90;;;;;;4939497;29;20052;-96
2021/01/21 05:10:52;;;;;;;1999.90;999.90;;;7.20;99.90;;;;;;4938756;29;20047;-96
2021/01/21 05:13:27;;;;;;;1999.90;999.90;;;7.10;99.90;;;;;;4939618;29;20127;-95
2021/01/21 05:15:59;;;;;;;1999.90;999.90;;;7.10;99.90;;;;;;4939492;29;20056;-95
2021/01/21 05:18:33;;;;;;;1999.90;999.90;;;7.10;99.90;;;;;;4939372;29;20051;-95
2021/01/21 05:21:05;;;;;;;1999.90;999.90;;;7.10;99.90;;;;;;4939636;29;20059;-95
2021/01/21 05:23:39;;;;;;;1999.90;999.90;;;7.10;99.90;;;;;;4938733;29;20051;-95
2021/01/21 05:26:10;;;;;;;1999.90;999.90;;;7.10;99.90;;;;;;4939685;29;20111;-96
2021/01/21 05:28:40;;;;;;;1999.90;999.90;;;7.10;99.90;;;;;;4939226;29;20061;-95
2021/01/21 05:31:10;;;;;;;1999.90;999.90;;;7.00;99.90;;;;;;4938926;29;20055;-94
2021/01/21 05:33:40;;;;;;;1999.90;999.90;;;7.00;99.90;;;;;;4938719;29;20139;-94
2021/01/21 05:36:12;;;;;;;1999.90;999.90;;;7.00;99.90;;;;;;4939642;29;20096;-94
2021/01/21 05:38:42;;;;;;;1999.90;999.90;;;6.90;99.90;;;;;;4938895;29;20078;-94
2021/01/21 05:41:10;;;;;;;1999.90;999.90;;;6.80;99.90;;;;;;4939629;29;20428;-93
2021/01/21 05:43:37;;;;;;;1999.90;999.90;;;6.70;99.90;;;;;;4938631;29;20122;-94
2021/01/21 05:46:07;;;;;;;1999.90;999.90;;;6.70;99.90;;;;;;4938563;29;20058;-94
2021/01/21 05:48:40;;;;;;;1999.90;999.90;;;6.60;99.90;;;;;;4937851;29;20142;-95
2021/01/21 05:51:10;;;;;;;1999.90;999.90;;;6.50;99.90;;;;;;4938274;29;20059;-94
2021/01/21 05:53:39;;;;;;;1999.90;999.90;;;6.50;99.90;;;;;;4938629;29;20063;-94
2021/01/21 05:56:11;;;;;;;1999.90;999.90;;;6.40;99.90;;;;;;4938995;29;20091;-93
2021/01/21 05:58:40;;;;;;;1999.90;999.90;;;6.40;99.90;;;;;;4938319;29;20051;-95
2021/01/21 06:01:08;;;;;;;1999.90;999.90;;;6.40;99.90;;;;;;4939214;29;20048;-95
2021/01/21 06:03:40;;;;;;;1999.90;999.90;;;6.30;99.90;;;;;;4938459;29;20403;-95
2021/01/21 06:06:11;;;;;;;1999.90;999.90;;;6.30;99.90;;;;;;4938063;29;20060;-95
2021/01/21 06:08:39;;;;;;;1999.90;999.90;;;6.30;99.90;;;;;;4938689;29;20059;-95
2021/01/21 06:11:22;;;;;;;1999.90;999.90;;;6.30;99.90;;;;;;4938388;29;20047;-95
2021/01/21 06:13:52;;;;;;;1999.90;999.90;;;6.30;99.90;;;;;;4938734;29;20139;-96
2021/01/21 06:16:23;;;;;;;1999.90;999.90;;;6.20;99.90;;;;;;4938106;29;20055;-95
2021/01/21 06:18:59;;;;;;;1999.90;999.90;;;6.20;99.90;;;;;;4938521;29;20051;-95
2021/01/21 06:21:33;;;;;;;1999.90;999.90;;;6.10;99.90;;;;;;4938144;29;20052;-94
2021/01/21 06:24:09;;;;;;;1999.90;999.90;;;6.20;99.90;;;;;;4938505;29;20183;-96
2021/01/21 06:26:47;;;;;;;1999.90;999.90;;;6.20;99.90;;;;;;4938355;29;20131;-95
2021/01/21 06:29:17;;;;;;;1999.90;999.90;;;6.10;99.90;;;;;;4938642;29;20052;-94
2021/01/21 06:31:45;;;;;;;1999.90;999.90;;;6.10;99.90;;;;;;4938442;29;20066;-94
2021/01/21 06:34:18;;;;;;;1999.90;999.90;;;6.20;99.90;;;;;;4938372;29;20043;-95
2021/01/21 06:36:55;;;;;;;1999.90;999.90;;;6.20;99.90;;;;;;4938782;29;20056;-94
2021/01/21 06:39:29;;;;;;;1999.90;999.90;;;6.20;99.90;;;;;;4939156;29;20082;-95
2021/01/21 06:42:01;;;;;;;1999.90;999.90;;;6.20;99.90;;;;;;4939022;29;20086;-94
2021/01/21 06:44:30;;;;;;;1999.90;999.90;;;6.20;99.90;;;;;;4938394;29;20056;-94
2021/01/21 06:47:00;;;;;;;1999.90;999.90;;;6.20;99.90;;;;;;4938570;29;20056;-95
2021/01/21 07:21:32;;;;;;;1999.90;999.90;;;5.90;99.90;;;;;;4919792;29;20052;-94
2021/01/21 07:24:03;;;;;;;1999.90;999.90;;;5.80;99.90;;;;;;4921748;29;20135;-93
2021/01/21 07:26:33;;;;;;;1999.90;999.90;;;5.80;99.90;;;;;;4922452;29;20052;-94
2021/01/21 07:29:06;;;;;;;1999.90;999.90;;;5.80;99.90;;;;;;4921645;29;20064;-93
2021/01/21 07:32:05;;;;;;;1999.90;999.90;;;5.80;99.90;;;;;;4922285;29;20088;-93
2021/01/21 07:34:44;;;;;;;1999.90;999.90;;;5.80;99.90;;;;;;4922129;29;20100;-94
2021/01/21 07:37:25;;;;;;;1999.90;999.90;;;5.80;99.90;;;;;;4922164;29;20052;-94
2021/01/21 07:40:03;;;;;;;1999.90;999.90;;;5.80;99.90;;;;;;4922279;29;20056;-93
2021/01/21 07:42:55;;;;;;;1999.90;999.90;;;5.80;99.90;;;;;;4922894;29;20078;-96
2021/01/21 07:45:25;;;;;;;1999.90;999.90;;;5.80;99.90;;;;;;4928235;29;20483;-92
2021/01/21 07:47:55;;;;;;;1999.90;999.90;;;5.70;99.90;;;;;;4922420;29;20060;-93
2021/01/21 07:50:36;;;;;;;1999.90;999.90;;;5.70;99.90;;;;;;4921638;29;20055;-94
2021/01/21 07:53:18;;;;;;;1999.90;999.90;;;5.70;99.90;;;;;;4922211;29;20048;-93
2021/01/21 07:55:48;;;;;;;1999.90;999.90;;;5.70;99.90;;;;;;4922069;29;20420;-92
2021/01/21 07:58:35;;;;;;;1999.90;999.90;;;5.70;99.90;;;;;;4922584;29;20056;-92
2021/01/21 08:03:46;;;;;;;1999.90;999.90;;;5.70;99.90;;;;;;5222378;23;20061;-93
2021/01/21 08:06:25;;;;;;;1999.90;999.90;;;5.60;99.90;;;;;;4903026;29;20075;-92
2021/01/21 08:09:11;;;;;;;1999.90;999.90;;;5.60;99.90;;;;;;4903296;29;20063;-93
2021/01/21 08:11:44;;;;;;;1999.90;999.90;;;5.60;99.90;;;;;;4904563;29;20063;-94
2021/01/21 08:14:16;;;;;;;1999.90;999.90;;;5.60;99.90;;;;;;4902288;29;20068;-93
2021/01/21 08:16:48;;;;;;;1999.90;999.90;;;5.60;99.90;;;;;;4902869;29;20052;-92
2021/01/21 08:19:20;;;;;;;;;;;5.60;99.90;;;;;;4903479;29;20052;-94
2021/01/21 08:21:49;;;;;;;1999.90;999.90;;;5.60;99.90;;;;;;4902527;29;19923;-93
2021/01/21 08:24:17;;;;;;;1999.90;999.90;;;5.60;99.90;;;;;;4902293;29;20049;-95
2021/01/21 08:26:45;;;;;;;1999.90;999.90;;;5.60;99.90;;;;;;4902010;29;20060;-94
2021/01/21 08:29:15;;;;;;;1999.90;999.90;;;5.60;99.90;;;;;;4901501;29;20063;-92
2021/01/21 08:31:46;;;;;;;1999.90;999.90;;;5.60;99.90;;;;;;4903817;29;20143;-94
2021/01/21 08:34:17;;;;;;;1999.90;999.90;;;5.70;99.90;;;;;;4901277;29;20484;-93
2021/01/21 08:36:49;;;;;;;1999.90;999.90;;;5.70;99.90;;;;;;4885572;29;20065;-93
2021/01/21 08:39:29;;;;;;;1999.90;999.90;;;5.70;99.90;;;;;;4886375;29;20135;-93
2021/01/21 08:41:57;;;;;;;1999.90;999.90;;;5.70;99.90;;;;;;4884668;29;20056;-93
2021/01/21 08:44:35;;;;;;;1999.90;999.90;;;5.70;99.90;;;;;;4884400;29;20381;-93
2021/01/21 08:47:03;;;;;;;1999.90;999.90;;;5.80;99.90;;;;;;4885212;29;20061;-94
2021/01/21 08:49:34;;;;;;;1999.90;999.90;;;5.80;99.90;;;;;;4885647;29;20147;-92
2021/01/21 08:52:12;;;;;;;1999.90;999.90;;;5.70;99.90;;;;;;4885628;29;20083;-94
2021/01/21 08:54:57;;;;;;;1999.90;999.90;;;5.80;99.90;;;;;;4883275;29;20056;-94
2021/01/21 09:45:34;;;;;;;1999.90;999.90;;;6.00;99.90;;;;;;5034992;23;20052;-96
2021/01/21 09:50:51;;;;;;;1999.90;999.90;;;6.10;99.90;;;;;;5074288;23;20050;-96
2021/01/21 10:31:13;;;;;;;1999.90;999.90;;;6.80;99.90;;;;;;4898982;29;20044;-93
2021/01/21 10:33:48;;;;;;;1999.90;999.90;;;6.80;99.90;;;;;;4901306;29;20057;-93
2021/01/21 10:36:15;;;;;;;;;;;6.80;99.90;;;;;;4900320;29;20136;-93
2021/01/21 10:38:42;;;;;;;1999.90;999.90;;;6.80;99.90;;;;;;4900555;29;19923;-94
2021/01/21 10:41:11;;;;;;;1999.90;999.90;;;6.80;99.90;;;;;;4901030;29;20071;-94
2021/01/21 10:43:46;;;;;;;1999.90;999.90;;;6.90;99.90;;;;;;4900016;29;20448;-93
2021/01/21 10:46:15;;;;;;;1999.90;999.90;;;6.90;99.90;;;;;;4900251;29;20071;-94
2021/01/21 10:48:47;;;;;;;1999.90;999.90;;;6.90;99.90;;;;;;4900229;29;20468;-94
2021/01/21 10:51:24;;;;;;;1999.90;999.90;;;7.00;99.90;;;;;;4901044;29;20452;-93
2021/01/21 10:53:59;;;;;;;1999.90;999.90;;;7.00;99.90;;;;;;4903808;29;20063;-93
2021/01/21 10:56:29;;;;;;;1999.90;999.90;;;7.00;99.90;;;;;;4904305;29;20384;-93
2021/01/21 10:58:58;;;;;;;1999.90;999.90;;;7.00;99.90;;;;;;4904730;29;20056;-93
2021/01/21 11:01:26;;;;;;;1999.90;999.90;;;7.00;99.90;;;;;;4904285;29;20143;-94
2021/01/21 11:03:54;;;;;;;1999.90;999.90;;;7.10;99.90;;;;;;4903489;29;20484;-94
2021/01/21 11:06:26;;;;;;;1999.90;999.90;;;7.10;99.90;;;;;;4903561;29;20079;-93
2021/01/21 11:09:08;;;;;;;1999.90;999.90;;;7.10;99.90;;;;;;4901999;29;20156;-93
2021/01/21 11:11:36;;;;;;;1999.90;999.90;;;7.20;99.90;;;;;;4903622;29;20480;-95
2021/01/21 11:14:06;;;;;;;1999.90;999.90;;;7.20;99.90;;;;;;4904701;29;20052;-96
2021/01/21 11:16:47;;;;;;;1999.90;999.90;;;7.20;99.90;;;;;;4903544;29;20585;-94
2021/01/21 11:19:15;;;;;;;1999.90;999.90;;;7.20;99.90;;;;;;4904128;29;20120;-93
2021/01/21 11:21:48;;;;;;;1999.90;999.90;;;7.20;99.90;;;;;;4903097;29;20054;-93
2021/01/21 11:24:30;;;;;;;;;;;7.10;99.90;;;;;;4904444;29;20056;-93
2021/01/21 11:26:57;;;;;;;1999.90;999.90;;;7.20;99.90;;;;;;4903529;29;19994;-93
2021/01/21 11:29:30;;;;;;;1999.90;999.90;;;7.20;99.90;;;;;;4908486;29;20056;-93
2021/01/21 11:32:03;;;;;;;1999.90;999.90;;;7.20;99.90;;;;;;4922481;29;20134;-92
2021/01/21 11:34:32;;;;;;;1999.90;999.90;;;7.30;99.90;;;;;;4922004;29;20059;-93
2021/01/21 11:36:59;;;;;;;1999.90;999.90;;;7.30;99.90;;;;;;4922090;29;20087;-93
2021/01/21 11:39:29;;;;;;;1999.90;999.90;;;7.20;99.90;;;;;;4921571;29;20052;-92
2021/01/21 11:41:56;;;;;;;1999.90;999.90;;;7.30;99.90;;;;;;4921763;29;20086;-92
2021/01/21 11:44:23;;;;;;;1999.90;999.90;;;7.30;99.90;;;;;;4922479;29;20108;-93
2021/01/21 11:46:51;;;;;;;1999.90;999.90;;;7.30;99.90;;;;;;4922158;29;20155;-93
2021/01/21 11:49:23;;;;;;;1999.90;999.90;;;7.30;99.90;;;;;;4922176;29;20499;-93
2021/01/21 11:52:07;;;;;;;1999.90;999.90;;;7.30;99.90;;;;;;4905139;29;20068;-93
2021/01/21 11:54:42;;;;;;;1999.90;999.90;;;7.30;99.90;;;;;;4922264;29;20052;-94
2021/01/21 11:57:13;;;;;;;1999.90;999.90;;;7.40;99.90;;;;;;4921567;29;20052;-93
2021/01/21 11:59:43;;;;;;;1999.90;999.90;;;7.40;99.90;;;;;;4922242;29;20497;-94
2021/01/21 12:02:10;;;;;;;1999.90;999.90;;;7.30;99.90;;;;;;4921637;29;20051;-94
2021/01/21 12:04:58;;;;;;;1999.90;999.90;;;7.40;99.90;;;;;;4928310;29;20143;-93
2021/01/21 12:07:45;;;;;;;1999.90;999.90;;;7.40;99.90;;;;;;4940245;29;20487;-94
2021/01/21 12:10:16;;;;;;;1999.90;999.90;;;7.40;99.90;;;;;;4906782;29;20066;-93
2021/01/21 12:12:45;;;;;;;1999.90;999.90;;;7.40;99.90;;;;;;4921565;29;20056;-94
2021/01/21 12:15:13;;;;;;;1999.90;999.90;;;7.40;99.90;;;;;;4921316;29;20052;-94
2021/01/21 12:17:44;;;;;;;1999.90;999.90;;;7.40;99.90;;;;;;4921001;29;20078;-94
2021/01/21 12:20:33;;;;;;;1999.90;999.90;;;7.40;99.90;;;;;;4921719;29;20060;-93
2021/01/21 12:23:28;;;;;;;1999.90;999.90;;;7.40;99.90;;;;;;4920287;29;20480;-94
2021/01/21 12:29:07;;;;;;;1999.90;999.90;;;7.40;99.90;;;;;;4917374;29;20055;-93
2021/01/21 12:31:52;;;;;;;1999.90;999.90;;;7.40;99.90;;;;;;4877002;29;20064;-94
2021/01/21 12:34:20;;;;;;;1999.90;999.90;;;7.50;99.90;;;;;;4902036;29;20061;-94
2021/01/21 12:36:48;;;;;;;1999.90;999.90;;;7.40;99.90;;;;;;4902087;29;20473;-93
2021/01/21 12:39:18;;;;;;;1999.90;999.90;;;7.50;99.90;;;;;;4902651;29;20092;-92
2021/01/21 12:41:49;;;;;;;1999.90;999.90;;;7.50;99.90;;;;;;4902639;29;20057;-92
2021/01/21 12:44:22;;;;;;;1999.90;999.90;;;7.50;99.90;;;;;;4901844;29;20493;-93
2021/01/21 12:46:49;;;;;;;1999.90;999.90;;;7.60;99.90;;;;;;4902724;29;20052;-92
2021/01/21 12:49:17;;;;;;;1999.90;999.90;;;7.60;99.90;;;;;;4901650;29;20457;-93
2021/01/21 12:51:44;;;;;;;1999.90;999.90;;;7.60;99.90;;;;;;4901694;29;20060;-93
2021/01/21 12:54:26;;;;;;;1999.90;999.90;;;7.60;99.90;;;;;;4901692;29;20155;-94
2021/01/21 12:57:22;;;;;;;1999.90;999.90;;;7.70;99.90;;;;;;4901616;29;20052;-93
2021/01/21 12:59:49;;;;;;;1999.90;999.90;;;7.70;99.90;;;;;;4901731;29;20059;-93
2021/01/21 13:02:20;;;;;;;1999.90;999.90;;;7.80;99.90;;;;;;4902081;29;20064;-94
2021/01/21 13:04:57;;;;;;;1999.90;999.90;;;7.70;99.90;;;;;;4901712;29;20044;-94
2021/01/21 13:07:26;;;;;;;1999.90;999.90;;;7.60;99.90;;;;;;4901059;29;20064;-93
2021/01/21 13:09:55;;;;;;;1999.90;999.90;;;7.60;99.90;;;;;;4902295;29;20056;-94
2021/01/21 13:12:22;;;;;;;1999.90;999.90;;;7.70;99.90;;;;;;4900995;29;20053;-95
2021/01/21 14:26:15;;;;;;;1999.90;999.90;;;7.80;99.90;;;;;;1363534;23;20338;-94
2021/01/21 14:28:52;;;;;;;1999.90;999.90;;;7.80;99.90;;;;;;4911498;29;20096;-96
2021/01/21 14:31:36;;;;;;;1999.90;999.90;;;7.80;99.90;;;;;;4908760;29;20115;-94
2021/01/21 14:34:05;;;;;;;1999.90;999.90;;;7.70;99.90;;;;;;4902027;29;20049;-94
2021/01/21 14:36:42;;;;;;;1999.90;999.90;;;7.80;99.90;;;;;;4901151;29;20044;-93
2021/01/21 14:39:22;;;;;;;1999.90;999.90;;;7.80;99.90;;;;;;4901744;29;20495;-93
2021/01/21 14:41:53;;;;;;;1999.90;999.90;;;7.80;99.90;;;;;;4901752;29;20052;-93
2021/01/21 14:44:25;;;;;;;1999.90;999.90;;;7.80;99.90;;;;;;4902030;29;20056;-93
2021/01/21 14:46:52;;;;;;;1999.90;999.90;;;7.70;99.90;;;;;;4902524;29;20053;-94
2021/01/21 14:49:26;;;;;;;1999.90;999.90;;;7.90;99.90;;;;;;4903372;29;20060;-94
2021/01/21 14:52:04;;;;;;;;;;;;;;;;;;;;;
2021/01/21 14:54:34;;;;;;;1999.90;999.90;;;7.90;99.90;;;;;;4904165;29;20056;-91
2021/01/21 14:57:06;;;;;;;1999.90;999.90;;;7.90;99.90;;;;;;4911740;29;20036;-92
2021/01/21 14:59:37;;;;;;;1999.90;999.90;;;7.80;99.90;;;;;;4915170;29;20044;-92
2021/01/21 15:02:06;;;;;;;1999.90;999.90;;;7.80;99.90;;;;;;4913951;29;20056;-94
2021/01/21 15:04:40;;;;;;;1999.90;999.90;;;7.80;99.90;;;;;;4911590;29;20060;-93
2021/01/21 15:07:16;;;;;;;1999.90;999.90;;;7.80;99.90;;;;;;4911888;29;20063;-92
2021/01/21 15:09:48;;;;;;;1999.90;999.90;;;7.70;99.90;;;;;;4915908;29;20108;-93
2021/01/21 15:54:38;;;;;;;;;;;;;;;;;;;;;
2021/01/21 15:57:19;;;;;;;1999.90;999.90;;;7.50;99.90;;;;;;4954547;28;20056;-95
2021/01/21 16:00:07;;;;;;;1999.90;999.90;;;7.40;99.90;;;;;;5058153;28;20048;-96
2021/01/21 16:03:25;;;;;;;;;;;;;;;;;;;;;
2021/01/21 16:06:01;;;;;;;1999.90;999.90;;;7.40;99.90;;;;;;5071097;28;20065;-94
2021/01/21 16:08:43;;;;;;;1999.90;999.90;;;7.40;99.90;;;;;;5107198;28;20047;-95
2021/01/21 16:14:18;;;;;;;1999.90;999.90;;;7.40;99.90;;;;;;5111917;28;20056;-94
2021/01/21 16:16:54;;;;;;;1999.90;999.90;;;7.40;99.90;;;;;;5112751;28;20047;-95
2021/01/21 16:19:41;;;;;;;1999.90;999.90;;;7.40;99.90;;;;;;5112620;28;20051;-94
2021/01/21 16:22:14;;;;;;;1999.90;999.90;;;7.40;99.90;;;;;;5113747;28;20478;-94
2021/01/21 16:36:09;;;;;;;1999.90;999.90;;;7.40;99.90;;;;;;5088108;28;20074;-94
2021/01/21 16:38:48;;;;;;;1999.90;999.90;;;7.30;99.90;;;;;;5112928;28;20422;-93
2021/01/21 16:41:16;;;;;;;1999.90;999.90;;;7.40;99.90;;;;;;5112177;28;20131;-95
2021/01/21 16:43:59;;;;;;;1999.90;999.90;;;7.40;99.90;;;;;;5112067;28;20054;-95
2021/01/21 16:46:57;;;;;;;1999.90;999.90;;;7.30;99.90;;;;;;5112279;28;20508;-94
2021/01/21 16:49:45;;;;;;;1999.90;999.90;;;7.40;99.90;;;;;;5109721;28;20055;-94
2021/01/21 16:52:43;;;;;;;1999.90;999.90;;;7.40;99.90;;;;;;5111599;28;20044;-94
2021/01/21 16:55:33;;;;;;;1999.90;999.90;;;7.40;99.90;;;;;;5098108;28;20048;-95
2021/01/21 16:58:24;;;;;;;1999.90;999.90;;;7.40;99.90;;;;;;5095005;28;20062;-95
2021/01/21 17:04:08;;;;;;;1999.90;999.90;;;7.40;99.90;;;;;;5097784;28;20410;-95
2021/01/21 17:18:06;;;;;;;1999.90;999.90;;;7.40;99.90;;;;;;5714637;22;20064;-96
2021/01/21 17:30:36;;;;;;;1999.90;999.90;;;7.50;99.90;;;;;;5057347;28;20127;-92
2021/01/21 17:33:21;;;;;;;1999.90;999.90;;;7.50;99.90;;;;;;5057116;28;20056;-92
2021/01/21 17:35:57;;;;;;;1999.90;999.90;;;7.50;99.90;;;;;;5057234;28;20053;-93
2021/01/21 17:46:09;;;;;;;1999.90;999.90;;;7.40;99.90;;;;;;5030877;28;20044;-93
2021/01/21 17:55:31;;;;;;;1999.90;999.90;;;7.50;99.90;;;;;;5057192;28;20112;-94
2021/01/21 18:11:53;;;;;;;;;;;;;;;;;;;;;
2021/01/21 18:14:35;;;;;;;1999.90;999.90;;;7.50;99.90;;;;;;5057040;28;20132;-95
2021/01/21 18:20:58;;;;;;;1999.90;999.90;;;7.50;99.90;;;;;;5058361;28;20045;-92
2021/01/21 18:23:56;;;;;;;;;;;7.50;99.90;;;;;;4988020;28;20060;-94
2021/01/21 18:26:37;;;;;;;1999.90;999.90;;;7.50;99.90;;;;;;5058073;28;19925;-94
2021/01/21 18:29:43;;;;;;;1999.90;999.90;;;7.50;99.90;;;;;;5058505;28;20057;-94
2021/01/21 21:24:53;;;;;;;1999.90;999.90;;;6.70;99.90;;;;;;5015968;28;20069;-96
2021/01/21 22:00:19;;;;;;;1999.90;999.90;;;6.50;99.90;;;;;;5055692;28;20056;-95
2021/01/21 22:02:55;;;;;;;1999.90;999.90;;;6.50;99.90;;;;;;5057586;28;20045;-96
2021/01/21 22:08:36;;;;;;;1999.90;999.90;;;6.30;99.90;;;;;;4976320;28;20051;-96
2021/01/21 22:11:14;;;;;;;1999.90;999.90;;;6.30;99.90;;;;;;5043287;28;20128;-95
2021/01/21 22:13:41;;;;;;;1999.90;999.90;;;6.30;99.90;;;;;;5056842;28;20484;-95
2021/01/21 22:16:14;;;;;;;1999.90;999.90;;;6.20;99.90;;;;;;5056765;28;20057;-96
2021/01/21 22:18:41;;;;;;;1999.90;999.90;;;6.20;99.90;;;;;;5057272;28;20057;-96
2021/01/21 22:21:09;;;;;;;1999.90;999.90;;;6.10;99.90;;;;;;5056213;28;20064;-95
2021/01/21 22:23:36;;;;;;;1999.90;999.90;;;6.00;99.90;;;;;;5056305;28;20052;-96
2021/01/21 22:26:04;;;;;;;1999.90;999.90;;;5.90;99.90;;;;;;5057009;28;20114;-96
2021/01/21 22:28:38;;;;;;;1999.90;999.90;;;5.80;99.90;;;;;;5056375;28;20053;-95
2021/01/21 22:31:11;;;;;;;1999.90;999.90;;;5.80;99.90;;;;;;5056867;28;20049;-95
2021/01/21 22:33:40;;;;;;;1999.90;999.90;;;5.70;99.90;;;;;;5055949;28;20053;-96
2021/01/21 22:36:16;;;;;;;1999.90;999.90;;;5.60;99.90;;;;;;5056577;28;20405;-95
2021/01/21 22:38:48;;;;;;;1999.90;999.90;;;5.50;99.90;;;;;;5056005;28;20053;-94
2021/01/21 22:41:18;;;;;;;1999.90;999.90;;;5.60;99.90;;;;;;5055720;28;20139;-95
2021/01/21 22:43:45;;;;;;;1999.90;999.90;;;5.70;99.90;;;;;;5055336;28;20311;-95
2021/01/21 22:46:20;;;;;;;;;;;5.70;99.90;;;;;;5056558;28;20106;-96
2021/01/21 22:48:57;;;;;;;1999.90;999.90;;;5.60;99.90;;;;;;5055760;28;19974;-95
2021/01/21 22:51:24;;;;;;;1999.90;999.90;;;5.60;99.90;;;;;;5055403;28;20049;-95
2021/01/21 22:53:58;;;;;;;1999.90;999.90;;;5.70;99.90;;;;;;5055743;28;20052;-95
2021/01/21 22:56:38;;;;;;;;;;;;;;;;;;;;;
